createdAt,value
2018-09-19T00:00:17.414Z,1004.35
2018-09-19T00:02:10.514Z,1004.41
2018-09-19T00:03:10.489Z,1004.39
2018-09-19T00:05:03.585Z,1004.44
2018-09-19T00:06:03.569Z,1004.42
2018-09-19T00:07:56.677Z,1004.44
2018-09-19T00:08:56.652Z,1004.36
2018-09-19T00:10:49.760Z,1004.39
2018-09-19T00:11:49.734Z,1004.37
2018-09-19T00:13:42.832Z,1004.33
2018-09-19T00:14:42.814Z,1004.33
2018-09-19T00:16:35.918Z,1004.30
2018-09-19T00:17:35.890Z,1004.36
2018-09-19T00:19:28.988Z,1004.32
2018-09-19T00:20:28.973Z,1004.32
2018-09-19T00:22:22.081Z,1004.32
2018-09-19T00:23:22.058Z,1004.32
2018-09-19T00:25:15.171Z,1004.28
2018-09-19T00:26:15.147Z,1004.32
2018-09-19T00:28:08.244Z,1004.34
2018-09-19T00:29:08.240Z,1004.36
2018-09-19T00:31:01.336Z,1004.41
2018-09-19T00:32:01.311Z,1004.40
2018-09-19T00:33:54.420Z,1004.43
2018-09-19T00:34:54.405Z,1004.47
2018-09-19T00:36:47.506Z,1004.45
2018-09-19T00:37:47.476Z,1004.46
2018-09-19T00:39:40.571Z,1004.46
2018-09-19T00:40:40.560Z,1004.45
2018-09-19T00:42:33.665Z,1004.49
2018-09-19T00:43:33.636Z,1004.49
2018-09-19T00:45:26.741Z,1004.46
2018-09-19T00:46:26.720Z,1004.46
2018-09-19T00:48:19.812Z,1004.48
2018-09-19T00:49:19.800Z,1004.47
2018-09-19T00:51:12.896Z,1004.49
2018-09-19T00:52:12.869Z,1004.55
2018-09-19T00:54:05.970Z,1004.63
2018-09-19T00:55:05.955Z,1004.63
2018-09-19T00:56:59.070Z,1004.62
2018-09-19T00:57:59.042Z,1004.64
2018-09-19T00:59:52.133Z,1004.55
2018-09-19T01:00:52.116Z,1004.57
2018-09-19T01:02:45.222Z,1004.54
2018-09-19T01:03:45.199Z,1004.48
2018-09-19T01:05:38.307Z,1004.53
2018-09-19T01:06:38.283Z,1004.53
2018-09-19T01:08:31.380Z,1004.50
2018-09-19T01:09:31.367Z,1004.53
2018-09-19T01:11:24.475Z,1004.52
2018-09-19T01:12:24.453Z,1004.52
2018-09-19T01:14:17.547Z,1004.54
2018-09-19T01:15:17.536Z,1004.55
2018-09-19T01:17:10.635Z,1004.52
2018-09-19T01:18:10.613Z,1004.56
2018-09-19T01:20:03.708Z,1004.61
2018-09-19T01:21:03.695Z,1004.59
2018-09-19T01:22:56.801Z,1004.59
2018-09-19T01:23:56.793Z,1004.62
2018-09-19T01:25:49.876Z,1004.64
2018-09-19T01:26:49.850Z,1004.66
2018-09-19T01:28:42.951Z,1004.64
2018-09-19T01:29:42.945Z,1004.67
2018-09-19T01:31:36.053Z,1004.67
2018-09-19T01:32:36.018Z,1004.65
2018-09-19T01:34:29.111Z,1004.69
2018-09-19T01:35:29.098Z,1004.74
2018-09-19T01:37:22.198Z,1004.74
2018-09-19T01:38:22.178Z,1004.73
2018-09-19T01:40:15.279Z,1004.74
2018-09-19T01:41:15.261Z,1004.74
2018-09-19T01:43:08.366Z,1004.75
2018-09-19T01:44:08.345Z,1004.77
2018-09-19T01:46:01.447Z,1004.72
2018-09-19T01:47:01.435Z,1004.71
2018-09-19T01:48:54.518Z,1004.75
2018-09-19T01:49:54.498Z,1004.76
2018-09-19T01:51:47.604Z,1004.80
2018-09-19T01:52:47.586Z,1004.79
2018-09-19T01:54:40.679Z,1004.80
2018-09-19T01:55:40.663Z,1004.79
2018-09-19T01:57:33.764Z,1004.79
2018-09-19T01:58:33.739Z,1004.80
2018-09-19T02:00:26.840Z,1004.80
2018-09-19T02:01:26.820Z,1004.83
2018-09-19T02:03:19.923Z,1004.82
2018-09-19T02:04:19.896Z,1004.84
2018-09-19T02:06:12.999Z,1004.83
2018-09-19T02:07:12.971Z,1004.82
2018-09-19T02:09:06.079Z,1004.80
2018-09-19T02:10:06.059Z,1004.76
2018-09-19T02:11:59.164Z,1004.76
2018-09-19T02:12:59.139Z,1004.72
2018-09-19T02:14:52.242Z,1004.74
2018-09-19T02:15:52.272Z,1004.66
2018-09-19T02:17:45.323Z,1004.72
2018-09-19T02:18:45.322Z,1004.75
2018-09-19T02:20:38.408Z,1004.75
2018-09-19T02:21:38.384Z,1004.72
2018-09-19T02:23:31.475Z,1004.74
2018-09-19T02:24:31.456Z,1004.74
2018-09-19T02:26:24.569Z,1004.75
2018-09-19T02:27:24.540Z,1004.77
2018-09-19T02:29:17.637Z,1004.75
2018-09-19T02:30:17.644Z,1004.76
2018-09-19T02:32:10.723Z,1004.78
2018-09-19T02:33:10.695Z,1004.77
2018-09-19T02:35:03.794Z,1004.82
2018-09-19T02:36:03.776Z,1004.79
2018-09-19T02:37:56.871Z,1004.81
2018-09-19T02:38:56.848Z,1004.82
2018-09-19T02:40:49.949Z,1004.83
2018-09-19T02:41:49.932Z,1004.80
2018-09-19T02:43:43.019Z,1004.87
2018-09-19T02:44:43.083Z,1004.86
2018-09-19T02:46:36.104Z,1004.89
2018-09-19T02:47:36.080Z,1004.88
2018-09-19T02:49:29.180Z,1004.91
2018-09-19T02:50:29.160Z,1004.88
2018-09-19T02:52:22.303Z,1004.91
2018-09-19T02:53:22.272Z,1004.92
2018-09-19T02:55:15.367Z,1004.92
2018-09-19T02:56:15.345Z,1004.96
2018-09-19T02:58:08.463Z,1004.96
2018-09-19T02:59:08.428Z,1004.95
2018-09-19T03:01:01.539Z,1004.96
2018-09-19T03:02:01.512Z,1005.00
2018-09-19T03:03:54.613Z,1005.02
2018-09-19T03:04:54.598Z,1004.97
2018-09-19T03:06:47.700Z,1005.02
2018-09-19T03:07:47.676Z,1004.95
2018-09-19T03:09:40.772Z,1004.95
2018-09-19T03:10:40.751Z,1004.94
2018-09-19T03:12:33.851Z,1005.00
2018-09-19T03:13:33.832Z,1004.98
2018-09-19T03:15:26.919Z,1004.93
2018-09-19T03:16:26.903Z,1004.93
2018-09-19T03:18:20.023Z,1004.90
2018-09-19T03:19:19.997Z,1004.87
2018-09-19T03:21:13.096Z,1004.88
2018-09-19T03:22:13.075Z,1004.86
2018-09-19T03:24:06.176Z,1004.90
2018-09-19T03:25:06.157Z,1004.92
2018-09-19T03:26:59.263Z,1004.89
2018-09-19T03:27:59.233Z,1004.88
2018-09-19T03:29:52.333Z,1004.88
2018-09-19T03:30:52.330Z,1004.88
2018-09-19T03:32:45.410Z,1004.85
2018-09-19T03:33:45.394Z,1004.87
2018-09-19T03:35:38.492Z,1004.82
2018-09-19T03:36:38.474Z,1004.80
2018-09-19T03:38:31.569Z,1004.84
2018-09-19T03:39:31.540Z,1004.87
2018-09-19T03:41:24.645Z,1004.85
2018-09-19T03:42:24.618Z,1004.80
2018-09-19T03:44:17.724Z,1004.81
2018-09-19T03:45:17.697Z,1004.80
2018-09-19T03:47:10.804Z,1004.77
2018-09-19T03:48:10.784Z,1004.77
2018-09-19T03:50:03.873Z,1004.81
2018-09-19T03:51:03.856Z,1004.84
2018-09-19T03:52:56.961Z,1004.86
2018-09-19T03:53:56.934Z,1004.87
2018-09-19T03:55:50.032Z,1004.90
2018-09-19T03:56:50.032Z,1004.88
2018-09-19T03:58:43.122Z,1004.85
2018-09-19T03:59:43.092Z,1004.91
2018-09-19T04:01:36.198Z,1004.92
2018-09-19T04:02:36.174Z,1004.95
2018-09-19T04:04:29.271Z,1004.93
2018-09-19T04:05:29.252Z,1004.95
2018-09-19T04:07:22.355Z,1004.93
2018-09-19T04:08:22.332Z,1004.96
2018-09-19T04:10:15.435Z,1004.96
2018-09-19T04:11:15.419Z,1005.00
2018-09-19T04:13:08.540Z,1005.02
2018-09-19T04:14:08.511Z,1005.02
2018-09-19T04:16:01.619Z,1005.03
2018-09-19T04:17:01.591Z,1005.03
2018-09-19T04:18:54.680Z,1005.11
2018-09-19T04:19:54.748Z,1005.13
2018-09-19T04:21:47.774Z,1005.09
2018-09-19T04:22:47.747Z,1005.07
2018-09-19T04:24:40.864Z,1005.02
2018-09-19T04:25:40.844Z,1005.04
2018-09-19T04:27:33.949Z,1005.08
2018-09-19T04:28:33.921Z,1005.05
2018-09-19T04:30:27.017Z,1005.09
2018-09-19T04:31:26.996Z,1005.11
2018-09-19T04:33:20.110Z,1005.14
2018-09-19T04:34:20.091Z,1005.17
2018-09-19T04:36:13.193Z,1005.16
2018-09-19T04:37:13.169Z,1005.18
2018-09-19T04:39:06.270Z,1005.21
2018-09-19T04:40:06.251Z,1005.27
2018-09-19T04:41:59.353Z,1005.27
2018-09-19T04:42:59.327Z,1005.22
2018-09-19T04:44:52.423Z,1005.25
2018-09-19T04:45:52.406Z,1005.25
2018-09-19T04:47:45.514Z,1005.24
2018-09-19T04:48:45.489Z,1005.23
2018-09-19T04:50:38.582Z,1005.26
2018-09-19T04:51:38.676Z,1005.28
2018-09-19T04:53:31.658Z,1005.30
2018-09-19T04:54:31.637Z,1005.31
2018-09-19T04:56:24.737Z,1005.33
2018-09-19T04:57:24.714Z,1005.36
2018-09-19T04:59:17.814Z,1005.32
2018-09-19T05:00:17.800Z,1005.38
2018-09-19T05:02:10.895Z,1005.39
2018-09-19T05:03:10.869Z,1005.44
2018-09-19T05:05:03.962Z,1005.43
2018-09-19T05:06:03.940Z,1005.44
2018-09-19T05:07:57.047Z,1005.47
2018-09-19T05:08:57.031Z,1005.48
2018-09-19T05:10:50.117Z,1005.45
2018-09-19T05:11:50.096Z,1005.41
2018-09-19T05:13:43.205Z,1005.43
2018-09-19T05:14:43.180Z,1005.45
2018-09-19T05:16:36.281Z,1005.45
2018-09-19T05:17:36.260Z,1005.43
2018-09-19T05:19:29.353Z,1005.41
2018-09-19T05:20:29.337Z,1005.45
2018-09-19T05:22:22.438Z,1005.44
2018-09-19T05:23:22.414Z,1005.45
2018-09-19T05:25:15.507Z,1005.43
2018-09-19T05:26:15.491Z,1005.41
2018-09-19T05:28:08.597Z,1005.45
2018-09-19T05:29:08.589Z,1005.45
2018-09-19T05:31:01.690Z,1005.48
2018-09-19T05:32:01.647Z,1005.47
2018-09-19T05:33:54.767Z,1005.51
2018-09-19T05:34:54.735Z,1005.54
2018-09-19T05:36:47.843Z,1005.55
2018-09-19T05:37:47.818Z,1005.62
2018-09-19T05:39:40.917Z,1005.61
2018-09-19T05:40:40.901Z,1005.67
2018-09-19T05:42:33.997Z,1005.65
2018-09-19T05:43:33.972Z,1005.66
2018-09-19T05:45:27.081Z,1005.72
2018-09-19T05:46:27.127Z,1005.73
2018-09-19T05:48:20.163Z,1005.79
2018-09-19T05:49:20.137Z,1005.80
2018-09-19T05:51:13.234Z,1005.89
2018-09-19T05:52:13.215Z,1005.93
2018-09-19T05:54:06.321Z,1006.03
2018-09-19T05:55:06.312Z,1006.07
2018-09-19T05:56:59.405Z,1006.13
2018-09-19T05:57:59.381Z,1006.13
2018-09-19T05:59:52.490Z,1006.12
2018-09-19T06:00:52.475Z,1006.12
2018-09-19T06:02:45.577Z,1006.20
2018-09-19T06:03:45.554Z,1006.20
2018-09-19T06:05:38.683Z,1006.24
2018-09-19T06:06:38.639Z,1006.26
2018-09-19T06:08:31.761Z,1006.24
2018-09-19T06:09:31.754Z,1006.21
2018-09-19T06:11:24.848Z,1006.27
2018-09-19T06:12:24.820Z,1006.27
2018-09-19T06:14:17.927Z,1006.24
2018-09-19T06:15:17.910Z,1006.29
2018-09-19T06:17:11.046Z,1006.28
2018-09-19T06:18:11.057Z,1006.29
2018-09-19T06:20:04.138Z,1006.36
2018-09-19T06:21:04.138Z,1006.38
2018-09-19T06:22:57.233Z,1006.40
2018-09-19T06:23:57.216Z,1006.41
2018-09-19T06:25:50.366Z,1006.41
2018-09-19T06:26:50.374Z,1006.35
2018-09-19T06:28:43.462Z,1006.38
2018-09-19T06:29:43.426Z,1006.38
2018-09-19T06:31:36.566Z,1006.35
2018-09-19T06:32:36.525Z,1006.40
2018-09-19T06:34:29.631Z,1006.42
2018-09-19T06:35:29.620Z,1006.46
2018-09-19T06:37:22.740Z,1006.49
2018-09-19T06:38:22.730Z,1006.46
2018-09-19T06:40:15.977Z,1006.48
2018-09-19T06:41:15.819Z,1006.51
2018-09-19T06:43:08.943Z,1006.52
2018-09-19T06:44:08.920Z,1006.52
2018-09-19T06:46:02.034Z,1006.48
2018-09-19T06:47:02.116Z,1006.46
2018-09-19T06:48:55.193Z,1006.49
2018-09-19T06:49:55.123Z,1006.50
2018-09-19T06:51:48.298Z,1006.55
2018-09-19T06:52:48.224Z,1006.53
2018-09-19T06:54:41.337Z,1006.60
2018-09-19T06:55:41.325Z,1006.59
2018-09-19T06:57:34.442Z,1006.61
2018-09-19T06:58:34.421Z,1006.64
2018-09-19T07:00:27.534Z,1006.66
2018-09-19T07:01:27.521Z,1006.66
2018-09-19T07:03:20.636Z,1006.69
2018-09-19T07:04:20.619Z,1006.69
2018-09-19T07:06:13.735Z,1006.64
2018-09-19T07:07:13.721Z,1006.66
2018-09-19T07:09:06.840Z,1006.69
2018-09-19T07:10:06.827Z,1006.68
2018-09-19T07:11:59.942Z,1006.66
2018-09-19T07:12:59.925Z,1006.68
2018-09-19T07:14:53.039Z,1006.68
2018-09-19T07:15:53.027Z,1006.69
2018-09-19T07:17:46.146Z,1006.68
2018-09-19T07:18:46.186Z,1006.72
2018-09-19T07:20:39.252Z,1006.67
2018-09-19T07:21:39.240Z,1006.67
2018-09-19T07:23:32.386Z,1006.68
2018-09-19T07:24:32.349Z,1006.63
2018-09-19T07:26:25.460Z,1006.66
2018-09-19T07:27:25.454Z,1006.68
2018-09-19T07:29:18.583Z,1006.69
2018-09-19T07:30:18.551Z,1006.67
2018-09-19T07:32:11.706Z,1006.66
2018-09-19T07:33:11.666Z,1006.67
2018-09-19T07:35:04.825Z,1006.65
2018-09-19T07:36:04.781Z,1006.66
2018-09-19T07:37:57.901Z,1006.65
2018-09-19T07:38:57.890Z,1006.66
2018-09-19T07:40:50.999Z,1006.62
2018-09-19T07:41:50.992Z,1006.64
2018-09-19T07:43:44.109Z,1006.62
2018-09-19T07:44:44.100Z,1006.66
2018-09-19T07:46:37.283Z,1006.67
2018-09-19T07:47:37.220Z,1006.63
2018-09-19T07:49:30.325Z,1006.68
2018-09-19T07:50:30.327Z,1006.69
2018-09-19T07:52:23.427Z,1006.74
2018-09-19T07:53:23.418Z,1006.72
2018-09-19T07:55:16.610Z,1006.70
2018-09-19T07:56:16.530Z,1006.75
2018-09-19T07:58:09.659Z,1006.75
2018-09-19T07:59:09.683Z,1006.77
2018-09-19T08:01:02.832Z,1006.76
2018-09-19T08:02:02.760Z,1006.77
2018-09-19T08:03:55.889Z,1006.76
2018-09-19T08:04:55.885Z,1006.80
2018-09-19T08:06:49.007Z,1006.82
2018-09-19T08:07:48.984Z,1006.87
2018-09-19T08:09:42.129Z,1006.91
2018-09-19T08:10:42.098Z,1006.89
2018-09-19T08:12:35.235Z,1006.95
2018-09-19T08:13:35.214Z,1006.96
2018-09-19T08:15:28.335Z,1006.95
2018-09-19T08:16:28.334Z,1006.97
2018-09-19T08:18:21.480Z,1006.99
2018-09-19T08:19:21.457Z,1006.92
2018-09-19T08:21:14.585Z,1006.95
2018-09-19T08:22:14.578Z,1006.94
2018-09-19T08:24:07.707Z,1006.95
2018-09-19T08:25:07.695Z,1006.94
2018-09-19T08:27:00.825Z,1006.95
2018-09-19T08:28:00.810Z,1006.96
2018-09-19T08:29:53.945Z,1007.01
2018-09-19T08:30:53.924Z,1007.02
2018-09-19T08:32:47.048Z,1007.03
2018-09-19T08:33:47.042Z,1007.05
2018-09-19T08:35:40.177Z,1007.04
2018-09-19T08:36:40.160Z,1007.08
2018-09-19T08:38:33.281Z,1007.06
2018-09-19T08:39:33.278Z,1007.06
2018-09-19T08:41:26.410Z,1007.09
2018-09-19T08:42:26.397Z,1007.10
2018-09-19T08:44:19.522Z,1007.07
2018-09-19T08:45:19.522Z,1007.08
2018-09-19T08:47:12.667Z,1007.03
2018-09-19T08:48:12.664Z,1007.10
2018-09-19T08:50:05.768Z,1007.04
2018-09-19T08:51:05.762Z,1007.04
2018-09-19T08:52:58.902Z,1007.05
2018-09-19T08:53:58.876Z,1007.01
2018-09-19T08:55:52.011Z,1007.05
2018-09-19T08:56:52.044Z,1007.05
2018-09-19T08:58:45.134Z,1007.09
2018-09-19T08:59:45.129Z,1007.05
2018-09-19T09:01:38.245Z,1007.03
2018-09-19T09:02:38.230Z,1007.03
2018-09-19T09:04:31.373Z,1007.07
2018-09-19T09:05:31.360Z,1007.05
2018-09-19T09:07:24.482Z,1007.06
2018-09-19T09:08:24.477Z,1007.04
2018-09-19T09:10:17.620Z,1007.05
2018-09-19T09:11:17.602Z,1007.05
2018-09-19T09:13:10.737Z,1007.16
2018-09-19T09:14:10.766Z,1007.16
2018-09-19T09:16:03.860Z,1007.11
2018-09-19T09:17:03.838Z,1007.15
2018-09-19T09:18:56.976Z,1007.16
2018-09-19T09:19:57.020Z,1007.21
2018-09-19T09:21:50.097Z,1007.16
2018-09-19T09:22:50.098Z,1007.15
2018-09-19T09:24:43.233Z,1007.13
2018-09-19T09:25:43.212Z,1007.16
2018-09-19T09:27:36.353Z,1007.23
2018-09-19T09:28:36.339Z,1007.22
2018-09-19T09:30:29.455Z,1007.27
2018-09-19T09:31:29.468Z,1007.22
2018-09-19T09:33:22.609Z,1007.19
2018-09-19T09:34:22.720Z,1007.23
2018-09-19T09:36:15.709Z,1007.18
2018-09-19T09:37:15.699Z,1007.18
2018-09-19T09:39:08.837Z,1007.16
2018-09-19T09:40:08.821Z,1007.21
2018-09-19T09:42:01.972Z,1007.20
2018-09-19T09:43:01.946Z,1007.24
2018-09-19T09:44:55.089Z,1007.22
2018-09-19T09:45:55.103Z,1007.23
2018-09-19T09:47:48.199Z,1007.25
2018-09-19T09:48:48.195Z,1007.21
2018-09-19T09:50:41.326Z,1007.19
2018-09-19T09:51:41.317Z,1007.21
2018-09-19T09:54:34.437Z,1007.09
2018-09-19T09:56:27.589Z,1007.09
2018-09-19T09:57:27.574Z,1007.08
2018-09-19T09:59:20.713Z,1007.06
2018-09-19T10:00:20.700Z,1007.01
2018-09-19T10:02:13.837Z,1006.96
2018-09-19T10:03:13.821Z,1006.97
2018-09-19T10:05:06.958Z,1006.97
2018-09-19T10:06:06.949Z,1006.92
2018-09-19T10:08:00.098Z,1006.98
2018-09-19T10:09:00.077Z,1006.95
2018-09-19T10:10:53.215Z,1006.91
2018-09-19T10:11:53.210Z,1006.92
2018-09-19T10:13:46.400Z,1006.90
2018-09-19T10:14:46.336Z,1006.84
2018-09-19T10:16:39.458Z,1006.86
2018-09-19T10:17:39.452Z,1006.84
2018-09-19T10:19:32.593Z,1006.80
2018-09-19T10:20:32.579Z,1006.80
2018-09-19T10:22:25.706Z,1006.79
2018-09-19T10:23:25.695Z,1006.82
2018-09-19T10:25:18.840Z,1006.77
2018-09-19T10:26:18.828Z,1006.81
2018-09-19T10:28:11.964Z,1006.84
2018-09-19T10:29:11.963Z,1006.80
2018-09-19T10:31:05.095Z,1006.84
2018-09-19T10:32:05.092Z,1006.80
2018-09-19T10:33:58.222Z,1006.94
2018-09-19T10:34:58.215Z,1006.94
2018-09-19T10:36:51.339Z,1006.97
2018-09-19T10:37:51.335Z,1006.96
2018-09-19T10:39:44.482Z,1006.94
2018-09-19T10:40:44.467Z,1006.88
2018-09-19T10:42:37.588Z,1006.84
2018-09-19T10:43:37.585Z,1006.87
2018-09-19T10:45:30.730Z,1006.88
2018-09-19T10:46:30.713Z,1006.87
2018-09-19T10:48:23.840Z,1006.82
2018-09-19T10:49:23.921Z,1006.81
2018-09-19T10:51:16.973Z,1006.76
2018-09-19T10:52:16.962Z,1006.80
2018-09-19T10:54:10.103Z,1006.79
2018-09-19T10:55:10.096Z,1006.78
2018-09-19T10:57:03.247Z,1006.78
2018-09-19T10:58:03.229Z,1006.77
2018-09-19T10:59:56.363Z,1006.74
2018-09-19T11:00:56.353Z,1006.77
2018-09-19T11:02:49.488Z,1006.73
2018-09-19T11:03:49.484Z,1006.77
2018-09-19T11:05:42.620Z,1006.71
2018-09-19T11:06:42.616Z,1006.67
2018-09-19T11:08:35.762Z,1006.77
2018-09-19T11:09:35.760Z,1006.74
2018-09-19T11:11:28.892Z,1006.75
2018-09-19T11:12:28.888Z,1006.77
2018-09-19T11:14:22.033Z,1006.80
2018-09-19T11:15:22.009Z,1006.77
2018-09-19T11:17:15.143Z,1006.84
2018-09-19T11:18:15.141Z,1006.81
2018-09-19T11:20:08.271Z,1006.84
2018-09-19T11:21:08.261Z,1006.81
2018-09-19T11:23:01.398Z,1006.83
2018-09-19T11:24:01.393Z,1006.81
2018-09-19T11:25:54.525Z,1006.79
2018-09-19T11:26:54.515Z,1006.75
2018-09-19T11:28:47.646Z,1006.78
2018-09-19T11:29:47.644Z,1006.80
2018-09-19T11:31:40.777Z,1006.76
2018-09-19T11:32:40.767Z,1006.78
2018-09-19T11:34:33.895Z,1006.71
2018-09-19T11:35:33.896Z,1006.57
2018-09-19T11:37:27.033Z,1006.64
2018-09-19T11:38:27.016Z,1006.54
2018-09-19T11:40:20.147Z,1006.63
2018-09-19T11:41:20.145Z,1006.55
2018-09-19T11:43:13.338Z,1006.54
2018-09-19T11:44:13.302Z,1006.57
2018-09-19T11:46:06.430Z,1006.37
2018-09-19T11:47:06.428Z,1006.29
2018-09-19T11:48:59.555Z,1006.46
2018-09-19T11:49:59.548Z,1006.31
2018-09-19T11:51:52.677Z,1006.27
2018-09-19T11:52:52.670Z,1006.28
2018-09-19T11:54:45.802Z,1006.27
2018-09-19T11:55:45.789Z,1006.39
2018-09-19T11:57:38.922Z,1006.42
2018-09-19T11:58:38.914Z,1006.36
2018-09-19T12:00:32.045Z,1006.32
2018-09-19T12:01:32.034Z,1006.29
2018-09-19T12:03:25.162Z,1006.31
2018-09-19T12:04:25.161Z,1006.30
2018-09-19T12:06:18.280Z,1006.28
2018-09-19T12:07:18.308Z,1006.23
2018-09-19T12:09:11.409Z,1006.20
2018-09-19T12:10:11.399Z,1006.17
2018-09-19T12:12:04.530Z,1006.15
2018-09-19T12:13:04.524Z,1006.10
2018-09-19T12:14:57.670Z,1006.08
2018-09-19T12:15:57.655Z,1006.03
2018-09-19T12:17:50.778Z,1006.05
2018-09-19T12:18:50.771Z,1006.04
2018-09-19T12:20:44.902Z,1006.02
2018-09-19T12:21:44.892Z,1006.00
2018-09-19T12:23:38.055Z,1005.98
2018-09-19T12:24:38.053Z,1005.99
2018-09-19T12:26:31.260Z,1005.98
2018-09-19T12:27:31.175Z,1005.90
2018-09-19T12:29:24.302Z,1005.90
2018-09-19T12:30:24.294Z,1005.89
2018-09-19T12:32:17.442Z,1005.90
2018-09-19T12:33:17.436Z,1005.86
2018-09-19T12:35:10.553Z,1005.81
2018-09-19T12:36:10.547Z,1005.84
2018-09-19T12:38:03.675Z,1005.86
2018-09-19T12:39:03.661Z,1005.83
2018-09-19T12:40:56.790Z,1005.78
2018-09-19T12:41:56.778Z,1005.84
2018-09-19T12:43:49.923Z,1005.81
2018-09-19T12:44:49.911Z,1005.84
2018-09-19T12:46:43.040Z,1005.80
2018-09-19T12:47:43.030Z,1005.81
2018-09-19T12:49:36.170Z,1005.75
2018-09-19T12:50:36.164Z,1005.75
2018-09-19T12:52:29.278Z,1005.70
2018-09-19T12:53:29.269Z,1005.68
2018-09-19T12:55:22.401Z,1005.66
2018-09-19T12:56:22.387Z,1005.63
2018-09-19T12:58:15.506Z,1005.60
2018-09-19T12:59:15.513Z,1005.61
2018-09-19T13:01:08.633Z,1005.65
2018-09-19T13:02:08.619Z,1005.62
2018-09-19T13:04:01.740Z,1005.55
2018-09-19T13:05:01.736Z,1005.60
2018-09-19T13:06:54.870Z,1005.55
2018-09-19T13:07:54.852Z,1005.51
2018-09-19T13:09:47.982Z,1005.53
2018-09-19T13:10:47.978Z,1005.56
2018-09-19T13:12:41.122Z,1005.52
2018-09-19T13:13:41.092Z,1005.47
2018-09-19T13:15:34.226Z,1005.47
2018-09-19T13:16:34.222Z,1005.46
2018-09-19T13:18:27.360Z,1005.46
2018-09-19T13:19:27.344Z,1005.45
2018-09-19T13:21:20.469Z,1005.45
2018-09-19T13:22:20.458Z,1005.39
2018-09-19T13:24:13.582Z,1005.42
2018-09-19T13:25:13.568Z,1005.40
2018-09-19T13:27:06.696Z,1005.35
2018-09-19T13:28:06.679Z,1005.37
2018-09-19T13:29:59.829Z,1005.31
2018-09-19T13:30:59.806Z,1005.36
2018-09-19T13:32:52.918Z,1005.33
2018-09-19T13:33:52.907Z,1005.30
2018-09-19T13:35:46.041Z,1005.31
2018-09-19T13:36:46.028Z,1005.32
2018-09-19T13:38:39.164Z,1005.33
2018-09-19T13:39:39.155Z,1005.31
2018-09-19T13:41:32.291Z,1005.30
2018-09-19T13:42:32.271Z,1005.30
2018-09-19T13:44:25.407Z,1005.23
2018-09-19T13:45:25.382Z,1005.24
2018-09-19T13:47:18.506Z,1005.24
2018-09-19T13:48:18.488Z,1005.25
2018-09-19T13:50:11.618Z,1005.24
2018-09-19T13:51:11.603Z,1005.22
2018-09-19T13:53:04.727Z,1005.22
2018-09-19T13:54:04.712Z,1005.18
2018-09-19T13:55:57.829Z,1005.21
2018-09-19T13:56:57.820Z,1005.20
2018-09-19T13:58:50.989Z,1005.16
2018-09-19T13:59:50.936Z,1005.16
2018-09-19T14:01:44.058Z,1005.17
2018-09-19T14:02:44.045Z,1005.09
2018-09-19T14:04:37.180Z,1005.13
2018-09-19T14:05:37.178Z,1005.15
2018-09-19T14:07:30.271Z,1005.14
2018-09-19T14:08:30.267Z,1005.14
2018-09-19T14:10:23.390Z,1005.13
2018-09-19T14:11:23.370Z,1005.12
2018-09-19T14:13:16.490Z,1005.07
2018-09-19T14:14:16.487Z,1005.10
2018-09-19T14:16:09.602Z,1005.09
2018-09-19T14:17:09.579Z,1005.06
2018-09-19T14:19:02.697Z,1005.04
2018-09-19T14:20:02.690Z,1005.03
2018-09-19T14:21:55.835Z,1005.02
2018-09-19T14:22:55.812Z,1004.97
2018-09-19T14:24:48.940Z,1004.88
2018-09-19T14:25:48.924Z,1004.94
2018-09-19T14:27:42.039Z,1004.98
2018-09-19T14:28:42.022Z,1005.00
2018-09-19T14:30:35.134Z,1005.03
2018-09-19T14:31:35.123Z,1004.96
2018-09-19T14:33:28.245Z,1005.00
2018-09-19T14:34:28.231Z,1005.01
2018-09-19T14:36:21.351Z,1004.97
2018-09-19T14:37:21.338Z,1004.95
2018-09-19T14:39:14.466Z,1004.93
2018-09-19T14:40:14.443Z,1004.90
2018-09-19T14:42:07.564Z,1004.94
2018-09-19T14:43:07.548Z,1004.95
2018-09-19T14:45:00.678Z,1004.92
2018-09-19T14:46:00.656Z,1004.95
2018-09-19T14:47:53.768Z,1004.89
2018-09-19T14:48:53.780Z,1004.89
2018-09-19T14:50:46.900Z,1004.91
2018-09-19T14:51:46.886Z,1004.89
2018-09-19T14:53:40.014Z,1004.87
2018-09-19T14:54:40.026Z,1004.92
2018-09-19T14:56:33.105Z,1004.81
2018-09-19T14:57:33.086Z,1004.86
2018-09-19T14:59:26.224Z,1004.80
2018-09-19T15:00:26.237Z,1004.89
2018-09-19T15:02:19.323Z,1004.84
2018-09-19T15:03:19.295Z,1004.85
2018-09-19T15:05:12.409Z,1004.82
2018-09-19T15:06:12.400Z,1004.81
2018-09-19T15:08:05.564Z,1004.80
2018-09-19T15:09:05.505Z,1004.82
2018-09-19T15:10:58.614Z,1004.77
2018-09-19T15:11:58.606Z,1004.79
2018-09-19T15:13:51.756Z,1004.77
2018-09-19T15:14:51.737Z,1004.81
2018-09-19T15:16:44.848Z,1004.80
2018-09-19T15:17:44.842Z,1004.78
2018-09-19T15:19:37.947Z,1004.78
2018-09-19T15:20:37.935Z,1004.80
2018-09-19T15:22:31.058Z,1004.76
2018-09-19T15:23:31.035Z,1004.76
2018-09-19T15:25:24.145Z,1004.74
2018-09-19T15:26:24.137Z,1004.79
2018-09-19T15:28:17.250Z,1004.73
2018-09-19T15:29:17.240Z,1004.74
2018-09-19T15:31:10.347Z,1004.73
2018-09-19T15:32:10.327Z,1004.75
2018-09-19T15:34:03.448Z,1004.76
2018-09-19T15:35:03.438Z,1004.74
2018-09-19T15:36:56.557Z,1004.71
2018-09-19T15:37:56.548Z,1004.74
2018-09-19T15:39:49.656Z,1004.75
2018-09-19T15:40:49.656Z,1004.69
2018-09-19T15:42:42.771Z,1004.69
2018-09-19T15:43:42.751Z,1004.73
2018-09-19T15:45:35.856Z,1004.74
2018-09-19T15:46:35.847Z,1004.72
2018-09-19T15:48:29.047Z,1004.73
2018-09-19T15:49:28.961Z,1004.71
2018-09-19T15:51:22.072Z,1004.72
2018-09-19T15:52:22.060Z,1004.65
2018-09-19T15:54:15.179Z,1004.69
2018-09-19T15:55:15.162Z,1004.72
2018-09-19T15:57:08.318Z,1004.66
2018-09-19T15:58:08.261Z,1004.68
2018-09-19T16:00:01.388Z,1004.68
2018-09-19T16:01:01.376Z,1004.66
2018-09-19T16:02:54.476Z,1004.62
2018-09-19T16:03:54.459Z,1004.63
2018-09-19T16:05:47.593Z,1004.66
2018-09-19T16:06:47.561Z,1004.66
2018-09-19T16:08:40.675Z,1004.70
2018-09-19T16:09:40.738Z,1004.72
2018-09-19T16:11:33.779Z,1004.73
2018-09-19T16:12:33.766Z,1004.68
2018-09-19T16:14:26.885Z,1004.66
2018-09-19T16:15:26.958Z,1004.72
2018-09-19T16:17:19.984Z,1004.72
2018-09-19T16:18:19.963Z,1004.70
2018-09-19T16:20:13.100Z,1004.73
2018-09-19T16:21:13.086Z,1004.71
2018-09-19T16:23:06.205Z,1004.68
2018-09-19T16:24:06.185Z,1004.74
2018-09-19T16:25:59.311Z,1004.74
2018-09-19T16:26:59.297Z,1004.70
2018-09-19T16:28:52.417Z,1004.69
2018-09-19T16:29:52.425Z,1004.69
2018-09-19T16:31:45.517Z,1004.73
2018-09-19T16:32:45.497Z,1004.73
2018-09-19T16:34:38.622Z,1004.72
2018-09-19T16:35:38.595Z,1004.76
2018-09-19T16:37:31.703Z,1004.71
2018-09-19T16:38:31.701Z,1004.74
2018-09-19T16:40:24.827Z,1004.73
2018-09-19T16:41:24.793Z,1004.76
2018-09-19T16:43:17.916Z,1004.72
2018-09-19T16:44:17.896Z,1004.68
2018-09-19T16:46:11.024Z,1004.71
2018-09-19T16:47:10.996Z,1004.73
2018-09-19T16:49:04.114Z,1004.71
2018-09-19T16:50:04.091Z,1004.73
2018-09-19T16:51:57.219Z,1004.71
2018-09-19T16:52:57.221Z,1004.71
2018-09-19T16:54:50.301Z,1004.72
2018-09-19T16:55:50.294Z,1004.74
2018-09-19T16:57:43.412Z,1004.78
2018-09-19T16:58:43.444Z,1004.76
2018-09-19T17:00:37.373Z,1004.77
2018-09-19T17:01:37.354Z,1004.77
2018-09-19T17:03:30.470Z,1004.75
2018-09-19T17:04:30.453Z,1004.79
2018-09-19T17:06:23.566Z,1004.74
2018-09-19T17:07:23.648Z,1004.80
2018-09-19T17:09:16.676Z,1004.81
2018-09-19T17:10:16.652Z,1004.77
2018-09-19T17:12:09.767Z,1004.82
2018-09-19T17:13:09.753Z,1004.77
2018-09-19T17:15:02.870Z,1004.79
2018-09-19T17:16:02.851Z,1004.74
2018-09-19T17:17:55.970Z,1004.78
2018-09-19T17:18:55.955Z,1004.82
2018-09-19T17:20:49.073Z,1004.75
2018-09-19T17:21:49.053Z,1004.79
2018-09-19T17:23:42.164Z,1004.79
2018-09-19T17:24:42.155Z,1004.77
2018-09-19T17:26:35.273Z,1004.76
2018-09-19T17:27:35.251Z,1004.81